Time;durP1;ratioP1;P1;durP2;ratioP2;P2;SDS_P1;SDS_P2;PMS_P1;PMS_P2;Temp;Humidity;BMP_temperature;BMP_pressure;BME280_temperature;BME280_humidity;BME280_pressure;Samples;Min_cycle;Max_cycle;Signal;HPM_P1;HPM_P2
2021/01/26 00:01:05;;;;;;;5.72;0.43;;;2.70;99.90;;;;;;4972334;28;20038;-86
2021/01/26 00:03:31;;;;;;;4.20;0.30;;;2.70;99.90;;;;;;5004690;28;20035;-85
2021/01/26 00:05:57;;;;;;;5.53;0.47;;;2.80;99.90;;;;;;4972234;28;20046;-86
2021/01/26 00:08:22;;;;;;;2.47;0.30;;;2.90;99.90;;;;;;4968480;29;20066;-86
2021/01/26 00:10:49;;;;;;;2.83;0.30;;;2.80;99.90;;;;;;4968858;29;20058;-86
2021/01/26 00:13:15;;;;;;;5.15;0.40;;;2.80;99.90;;;;;;4968908;29;20063;-85
2021/01/26 00:15:41;;;;;;;4.88;0.30;;;2.70;99.90;;;;;;4976734;28;20034;-85
2021/01/26 00:18:07;;;;;;;4.60;0.30;;;2.60;99.90;;;;;;4988027;28;20034;-86
2021/01/26 00:20:33;;;;;;;4.18;0.43;;;2.50;99.90;;;;;;4989391;28;20026;-86
2021/01/26 00:22:59;;;;;;;7.45;0.30;;;2.60;99.90;;;;;;4988266;28;20058;-86
2021/01/26 00:25:30;;;;;;;1.38;0.30;;;2.70;99.90;;;;;;4988218;28;20542;-86
2021/01/26 00:27:56;;;;;;;2.75;0.40;;;2.70;99.90;;;;;;4987795;28;20051;-85
2021/01/26 00:30:28;;;;;;;5.72;0.60;;;2.70;99.90;;;;;;4984644;28;20050;-86
2021/01/26 00:32:58;;;;;;;5.43;0.38;;;2.70;99.90;;;;;;4968543;29;20110;-85
2021/01/26 00:35:25;;;;;;;9.00;0.50;;;2.80;99.90;;;;;;4952559;29;20047;-86
2021/01/26 00:37:51;;;;;;;6.32;0.40;;;2.90;99.90;;;;;;4952412;29;20050;-85
2021/01/26 00:40:18;;;;;;;8.43;0.52;;;2.90;99.90;;;;;;4968342;28;20042;-85
2021/01/26 00:42:44;;;;;;;10.27;0.80;;;3.00;99.90;;;;;;4969718;28;20107;-85
2021/01/26 00:45:11;;;;;;;5.53;0.75;;;3.00;99.90;;;;;;4952471;29;20054;-85
2021/01/26 00:47:37;;;;;;;5.53;0.70;;;2.90;99.90;;;;;;4951923;29;20047;-86
2021/01/26 00:50:08;;;;;;;5.22;0.82;;;2.90;99.90;;;;;;4952509;29;20031;-87
2021/01/26 00:52:34;;;;;;;7.97;0.65;;;3.00;99.90;;;;;;4952311;29;20063;-85
2021/01/26 00:55:09;;;;;;;6.35;0.70;;;3.00;99.90;;;;;;4953319;29;20035;-86
2021/01/26 00:57:35;;;;;;;5.18;0.50;;;3.00;99.90;;;;;;4952135;28;20042;-84
2021/01/26 01:00:00;;;;;;;4.00;0.60;;;2.80;99.90;;;;;;4951991;29;20035;-85
2021/01/26 01:02:27;;;;;;;6.30;0.98;;;2.80;99.90;;;;;;4952243;29;20031;-85
2021/01/26 01:04:53;;;;;;;8.43;0.88;;;2.80;99.90;;;;;;4968137;29;20034;-86
2021/01/26 01:07:19;;;;;;;8.38;1.10;;;2.80;99.90;;;;;;4952515;29;20051;-85
2021/01/26 01:09:45;;;;;;;11.48;1.58;;;2.80;99.90;;;;;;4951443;29;20042;-85
2021/01/26 01:12:11;;;;;;;7.60;1.00;;;2.80;99.90;;;;;;4983989;28;20067;-85
2021/01/26 01:14:39;;;;;;;11.68;0.95;;;2.80;99.90;;;;;;4952061;29;20042;-85
2021/01/26 01:17:05;;;;;;;5.07;0.60;;;2.70;99.90;;;;;;4955021;28;20031;-85
2021/01/26 01:19:30;;;;;;;6.85;0.60;;;2.70;99.90;;;;;;4954838;28;20492;-85
2021/01/26 01:21:56;;;;;;;8.05;0.77;;;2.70;99.90;;;;;;4954798;28;20042;-85
2021/01/26 01:24:21;;;;;;;5.88;0.50;;;2.60;99.90;;;;;;4955067;28;20054;-84
2021/01/26 01:26:47;;;;;;;3.90;0.80;;;2.70;99.90;;;;;;4955191;28;20042;-85
2021/01/26 01:29:13;;;;;;;6.28;0.82;;;2.80;99.90;;;;;;4954814;28;20054;-85
2021/01/26 01:31:39;;;;;;;7.63;1.02;;;2.80;99.90;;;;;;4937953;29;20037;-84
2021/01/26 01:34:08;;;;;;;9.38;1.33;;;2.80;99.90;;;;;;4932365;29;20039;-85
2021/01/26 01:36:36;;;;;;;6.00;1.17;;;2.90;99.90;;;;;;4948031;29;20028;-85
2021/01/26 01:39:05;;;;;;;13.73;1.70;;;2.80;99.90;;;;;;4948120;29;20035;-85
2021/01/26 01:41:35;;;;;;;10.07;1.73;;;2.80;99.90;;;;;;4948149;29;20059;-85
2021/01/26 01:44:00;;;;;;;9.65;1.25;;;2.80;99.90;;;;;;4932313;29;20046;-85
2021/01/26 01:46:29;;;;;;;11.02;1.38;;;3.00;99.90;;;;;;4948067;29;20035;-85
2021/01/26 01:48:59;;;;;;;11.13;1.55;;;2.90;99.90;;;;;;4947795;29;20058;-85
2021/01/26 01:51:26;;;;;;;20.02;2.22;;;3.00;99.90;;;;;;4948013;29;20552;-86
2021/01/26 01:54:03;;;;;;;12.00;1.20;;;3.00;99.90;;;;;;4932129;29;20043;-86
2021/01/26 01:56:33;;;;;;;7.80;1.40;;;3.10;99.90;;;;;;4948022;29;20035;-85
2021/01/26 01:59:05;;;;;;;13.65;2.15;;;3.00;99.90;;;;;;4947757;29;20042;-84
2021/01/26 02:01:31;;;;;;;6.10;1.25;;;3.10;99.90;;;;;;4931966;29;20058;-85
2021/01/26 02:04:01;;;;;;;15.38;1.45;;;3.00;99.90;;;;;;4947696;29;20047;-85
2021/01/26 02:06:30;;;;;;;10.90;0.90;;;2.90;99.90;;;;;;4947831;29;20028;-85
2021/01/26 02:09:08;;;;;;;8.27;0.60;;;3.00;99.90;;;;;;4964280;29;20419;-86
2021/01/26 02:11:34;;;;;;;6.95;0.40;;;3.00;99.90;;;;;;4950921;29;20038;-86
2021/01/26 02:14:00;;;;;;;7.53;0.43;;;3.00;99.90;;;;;;4950642;29;20035;-86
2021/01/26 02:16:29;;;;;;;6.90;0.60;;;3.00;99.90;;;;;;4967802;28;20064;-86
2021/01/26 02:19:06;;;;;;;8.35;0.50;;;3.10;99.90;;;;;;4989103;28;20085;-85
2021/01/26 02:21:53;;;;;;;13.05;0.70;;;3.10;99.90;;;;;;4988611;28;20031;-86
2021/01/26 02:24:27;;;;;;;5.45;0.50;;;3.10;99.90;;;;;;4989121;28;20045;-86
2021/01/26 02:27:35;;;;;;;10.63;1.25;;;3.10;99.90;;;;;;4989195;28;20034;-85
2021/01/26 02:30:26;;;;;;;9.38;0.50;;;3.20;99.90;;;;;;4904725;28;20052;-86
2021/01/26 02:33:17;;;;;;;13.77;0.85;;;3.10;99.90;;;;;;5002231;28;20037;-86
2021/01/26 02:36:08;;;;;;;6.22;0.50;;;3.10;99.90;;;;;;5001957;28;20038;-86
2021/01/26 02:39:08;;;;;;;16.45;1.38;;;3.10;99.90;;;;;;4969790;28;20031;-86
2021/01/26 02:42:02;;;;;;;9.40;1.05;;;3.10;99.90;;;;;;4946926;28;20070;-86
2021/01/26 02:44:35;;;;;;;10.85;0.57;;;3.10;99.90;;;;;;4985818;28;20155;-86
2021/01/26 02:47:23;;;;;;;5.57;0.60;;;3.10;99.90;;;;;;4985752;28;20043;-85
2021/01/26 02:50:00;;;;;;;11.93;0.65;;;3.00;99.90;;;;;;4985564;28;20334;-85
2021/01/26 02:52:33;;;;;;;12.65;0.90;;;3.00;99.90;;;;;;4985676;28;20039;-86
2021/01/26 02:55:02;;;;;;;8.13;0.60;;;3.00;99.90;;;;;;4985542;28;20035;-86
2021/01/26 02:57:52;;;;;;;8.20;0.80;;;3.00;99.90;;;;;;4969617;28;20035;-85
2021/01/26 03:00:26;;;;;;;8.07;0.40;;;3.00;99.90;;;;;;4985711;28;20035;-85
2021/01/26 03:03:13;;;;;;;8.95;1.05;;;3.00;99.90;;;;;;4985592;28;20030;-85
2021/01/26 03:06:04;;;;;;;9.55;0.93;;;3.10;99.90;;;;;;4985318;28;20027;-85
2021/01/26 03:08:40;;;;;;;4.32;0.35;;;3.10;99.90;;;;;;4906315;29;20084;-86
2021/01/26 03:11:19;;;;;;;10.50;0.80;;;3.10;99.90;;;;;;4896547;29;20549;-87
2021/01/26 03:13:57;;;;;;;6.28;0.50;;;3.20;99.90;;;;;;4912481;29;20067;-86
2021/01/26 03:16:26;;;;;;;7.93;0.80;;;3.20;99.90;;;;;;4899391;29;20042;-85
2021/01/26 03:19:01;;;;;;;9.93;0.95;;;3.10;99.90;;;;;;4876510;29;20127;-85
2021/01/26 03:21:27;;;;;;;5.32;0.77;;;3.10;99.90;;;;;;4876636;29;20041;-85
2021/01/26 03:23:57;;;;;;;11.52;0.40;;;3.10;99.90;;;;;;4892167;29;20041;-85
2021/01/26 03:26:24;;;;;;;13.82;0.50;;;3.10;99.90;;;;;;4876799;29;20174;-85
2021/01/26 03:28:55;;;;;;;7.10;0.35;;;3.10;99.90;;;;;;4876464;29;20056;-85
2021/01/26 03:31:28;;;;;;;11.45;0.50;;;3.00;99.90;;;;;;4903675;29;20036;-85
2021/01/26 03:33:54;;;;;;;8.52;0.75;;;2.90;99.90;;;;;;4898847;29;20036;-85
2021/01/26 03:36:20;;;;;;;4.10;0.28;;;2.80;99.90;;;;;;4898612;29;20132;-85
2021/01/26 03:38:48;;;;;;;7.40;0.30;;;2.70;99.90;;;;;;4898686;29;20044;-85
2021/01/26 03:41:14;;;;;;;9.43;0.30;;;2.80;99.90;;;;;;4898799;29;20051;-85
2021/01/26 03:43:40;;;;;;;13.13;0.45;;;2.70;99.90;;;;;;4914407;29;20028;-85
2021/01/26 03:46:29;;;;;;;7.10;0.28;;;2.80;99.90;;;;;;4939060;29;20047;-85
2021/01/26 03:49:11;;;;;;;7.97;0.40;;;2.70;99.90;;;;;;4985023;28;20043;-85
2021/01/26 03:51:45;;;;;;;3.92;0.30;;;2.60;99.90;;;;;;4969304;29;20054;-84
2021/01/26 03:54:34;;;;;;;4.40;0.30;;;2.50;99.90;;;;;;4953298;29;20504;-85
2021/01/26 03:57:23;;;;;;;6.50;0.30;;;2.50;99.90;;;;;;4969249;29;20035;-85
2021/01/26 04:00:04;;;;;;;10.18;0.43;;;2.50;99.90;;;;;;4968888;29;20036;-85
2021/01/26 04:02:51;;;;;;;5.20;0.38;;;2.50;99.90;;;;;;4970371;29;20118;-85
2021/01/26 04:05:27;;;;;;;6.43;0.30;;;2.70;99.90;;;;;;4968810;29;20063;-85
2021/01/26 04:08:09;;;;;;;9.02;0.50;;;2.70;99.90;;;;;;4968564;28;20039;-84
2021/01/26 04:10:39;;;;;;;5.68;0.20;;;2.80;99.90;;;;;;4968940;29;20031;-86
2021/01/26 04:13:10;;;;;;;7.35;0.20;;;2.70;99.90;;;;;;4968956;29;20279;-86
2021/01/26 04:15:54;;;;;;;3.72;0.20;;;2.80;99.90;;;;;;4956054;28;20046;-86
2021/01/26 04:18:29;;;;;;;1.42;0.10;;;2.80;99.90;;;;;;4972026;28;20038;-85
2021/01/26 04:20:56;;;;;;;6.00;0.47;;;2.80;99.90;;;;;;4956081;28;20045;-85
2021/01/26 04:23:23;;;;;;;4.13;0.30;;;2.70;99.90;;;;;;4971853;28;20039;-85
2021/01/26 04:25:51;;;;;;;7.72;0.20;;;2.80;99.90;;;;;;4955944;28;20035;-85
2021/01/26 04:28:38;;;;;;;6.25;0.20;;;2.80;99.90;;;;;;4955691;28;20035;-85
2021/01/26 04:31:06;;;;;;;4.45;0.20;;;2.90;99.90;;;;;;4968676;29;20035;-85
2021/01/26 04:33:32;;;;;;;9.70;0.20;;;2.90;99.90;;;;;;4952695;29;20041;-86
2021/01/26 04:35:58;;;;;;;5.43;0.20;;;3.00;99.90;;;;;;4952447;29;20103;-85
2021/01/26 04:38:24;;;;;;;4.63;0.20;;;3.00;99.90;;;;;;4952579;29;20027;-84
2021/01/26 04:40:54;;;;;;;8.75;0.30;;;3.00;99.90;;;;;;4952399;29;20127;-85
2021/01/26 04:43:54;;;;;;;8.18;0.60;;;3.00;99.90;;;;;;4951657;29;20090;-85
2021/01/26 04:46:34;;;;;;;8.48;0.32;;;3.00;99.90;;;;;;4952305;29;20039;-85
2021/01/26 04:49:06;;;;;;;;;;;3.00;99.90;;;;;;4952410;29;20049;-85
2021/01/26 04:51:42;;;;;;;9.23;0.30;;;3.00;99.90;;;;;;4952124;29;19910;-86
2021/01/26 04:54:28;;;;;;;7.20;0.20;;;2.90;99.90;;;;;;4952018;29;20040;-85
2021/01/26 04:57:20;;;;;;;11.35;0.40;;;2.90;99.90;;;;;;4952339;29;20099;-86
2021/01/26 05:00:13;;;;;;;5.55;0.20;;;3.00;99.90;;;;;;4968089;29;20055;-85
2021/01/26 05:03:21;;;;;;;5.38;0.38;;;2.90;99.90;;;;;;4951998;29;20415;-86
2021/01/26 05:09:42;;;;;;;6.70;0.70;;;2.90;99.90;;;;;;4948133;29;20063;-85
2021/01/26 05:12:11;;;;;;;9.07;0.50;;;2.90;99.90;;;;;;4902584;29;20059;-85
2021/01/26 05:14:46;;;;;;;7.60;0.50;;;3.00;99.90;;;;;;4964968;29;20035;-85
2021/01/26 05:17:22;;;;;;;7.60;0.25;;;3.00;99.90;;;;;;4964982;29;20039;-85
2021/01/26 05:19:56;;;;;;;6.68;0.55;;;3.00;99.90;;;;;;4933033;29;20432;-85
2021/01/26 05:22:51;;;;;;;5.75;0.30;;;3.00;99.90;;;;;;4948813;29;20461;-85
2021/01/26 05:25:22;;;;;;;7.05;0.40;;;3.10;99.90;;;;;;4948756;29;20032;-86
2021/01/26 05:27:48;;;;;;;6.38;0.20;;;3.10;99.90;;;;;;4948646;29;20042;-85
2021/01/26 05:30:29;;;;;;;9.82;0.95;;;3.10;99.90;;;;;;4948614;29;20044;-85
2021/01/26 05:32:58;;;;;;;3.60;0.20;;;3.20;99.90;;;;;;4964957;29;20034;-86
2021/01/26 05:35:25;;;;;;;6.35;0.30;;;3.20;99.90;;;;;;4932302;29;20042;-86
2021/01/26 05:37:53;;;;;;;13.88;0.93;;;3.30;99.90;;;;;;4961950;29;20076;-84
2021/01/26 05:40:33;;;;;;;11.27;0.32;;;3.30;99.90;;;;;;4948181;29;20028;-86
2021/01/26 05:43:01;;;;;;;11.10;0.65;;;3.20;99.90;;;;;;4964435;29;20064;-86
2021/01/26 05:45:31;;;;;;;4.63;0.38;;;3.20;99.90;;;;;;4947743;29;20484;-86
2021/01/26 05:48:02;;;;;;;8.20;0.30;;;3.20;99.90;;;;;;4948011;29;20043;-85
2021/01/26 05:50:29;;;;;;;;;;;3.20;99.90;;;;;;4964000;29;20043;-86
2021/01/26 05:53:04;;;;;;;8.35;0.35;;;3.20;99.90;;;;;;4963743;29;19929;-86
2021/01/26 05:55:32;;;;;;;10.65;0.40;;;3.20;99.90;;;;;;4963932;28;20039;-85
2021/01/26 05:58:10;;;;;;;7.70;0.43;;;3.20;99.90;;;;;;4947320;29;20098;-85
2021/01/26 06:00:36;;;;;;;4.72;0.40;;;3.20;99.90;;;;;;4963832;29;20035;-86
2021/01/26 06:03:21;;;;;;;9.30;0.40;;;3.20;99.90;;;;;;4963863;29;20392;-86
2021/01/26 06:06:13;;;;;;;6.60;0.63;;;3.10;99.90;;;;;;4948944;29;20276;-86
2021/01/26 06:08:53;;;;;;;10.23;0.60;;;3.10;99.90;;;;;;4907940;29;20049;-85
2021/01/26 06:11:29;;;;;;;7.93;0.40;;;3.10;99.90;;;;;;4892661;29;20040;-85
2021/01/26 06:14:15;;;;;;;6.05;0.60;;;3.10;99.90;;;;;;4908454;29;20040;-85
2021/01/26 06:16:41;;;;;;;11.45;0.60;;;3.10;99.90;;;;;;4916179;29;20033;-85
2021/01/26 06:19:08;;;;;;;10.05;0.52;;;3.10;99.90;;;;;;4907894;29;20096;-85
2021/01/26 06:21:52;;;;;;;4.28;0.40;;;3.10;99.90;;;;;;4907804;29;20032;-85
2021/01/26 06:24:25;;;;;;;14.98;0.70;;;3.20;99.90;;;;;;4908376;29;20051;-85
2021/01/26 06:27:33;;;;;;;9.73;0.60;;;3.20;99.90;;;;;;4923635;29;20044;-85
2021/01/26 06:30:14;;;;;;;9.25;0.40;;;3.20;99.90;;;;;;4877002;29;20083;-86
2021/01/26 06:33:00;;;;;;;9.43;0.30;;;3.30;99.90;;;;;;4892645;29;20046;-85
2021/01/26 06:35:38;;;;;;;9.23;0.40;;;3.20;99.90;;;;;;4892399;29;20047;-85
2021/01/26 06:38:22;;;;;;;6.95;0.40;;;3.30;99.90;;;;;;4907819;29;20051;-86
2021/01/26 06:41:35;;;;;;;7.57;0.30;;;3.30;99.90;;;;;;4907850;29;20035;-86
2021/01/26 06:44:09;;;;;;;7.50;0.40;;;3.20;99.90;;;;;;4815880;29;20114;-85
2021/01/26 06:46:50;;;;;;;4.68;0.30;;;3.20;99.90;;;;;;4848108;29;20041;-87
2021/01/26 06:49:29;;;;;;;8.45;0.40;;;3.20;99.90;;;;;;4867026;29;20046;-87
2021/01/26 06:52:01;;;;;;;9.30;0.40;;;3.20;99.90;;;;;;4876745;29;20045;-86
2021/01/26 06:54:40;;;;;;;7.10;0.30;;;3.30;99.90;;;;;;4886545;29;20128;-85
2021/01/26 06:57:33;;;;;;;5.75;0.40;;;3.20;99.90;;;;;;4870734;29;20090;-85
2021/01/26 07:00:17;;;;;;;8.23;0.40;;;3.20;99.90;;;;;;4840948;29;20056;-85
2021/01/26 07:03:07;;;;;;;5.28;0.30;;;3.20;99.90;;;;;;4870482;29;20042;-84
2021/01/26 07:06:05;;;;;;;6.10;1.23;;;3.20;99.90;;;;;;4870480;29;20270;-85
2021/01/26 07:08:45;;;;;;;7.60;0.40;;;3.20;99.90;;;;;;4985707;23;20077;-85
2021/01/26 07:11:35;;;;;;;8.38;0.40;;;3.20;99.90;;;;;;5010345;28;20030;-85
2021/01/26 07:14:29;;;;;;;6.10;0.40;;;3.20;99.90;;;;;;5010495;28;20098;-85
2021/01/26 07:17:01;;;;;;;3.20;0.30;;;3.10;99.90;;;;;;5026879;28;20033;-86
2021/01/26 07:19:53;;;;;;;6.90;0.60;;;3.10;99.90;;;;;;5012346;28;20590;-86
2021/01/26 07:22:55;;;;;;;5.25;0.40;;;3.10;99.90;;;;;;4995792;28;20289;-85
2021/01/26 07:25:58;;;;;;;4.82;0.98;;;3.20;99.90;;;;;;5029886;28;20285;-85
2021/01/26 07:28:56;;;;;;;7.78;0.30;;;3.20;99.90;;;;;;4995873;28;20041;-85
2021/01/26 07:31:32;;;;;;;7.30;0.50;;;3.20;99.90;;;;;;5016963;28;20026;-85
2021/01/26 07:34:19;;;;;;;6.38;0.40;;;3.20;99.90;;;;;;4973780;28;20433;-86
2021/01/26 07:36:56;;;;;;;6.18;0.32;;;3.30;99.90;;;;;;4992232;28;20082;-85
2021/01/26 07:39:38;;;;;;;3.03;0.25;;;3.30;99.90;;;;;;4976424;28;20045;-84
2021/01/26 07:42:07;;;;;;;8.18;0.55;;;3.30;99.90;;;;;;4992167;28;20034;-85
2021/01/26 07:44:42;;;;;;;3.75;0.40;;;3.40;99.90;;;;;;4992123;28;20061;-86
2021/01/26 07:47:30;;;;;;;4.95;0.50;;;3.40;99.90;;;;;;4991646;28;20041;-85
2021/01/26 07:50:23;;;;;;;5.57;0.40;;;3.40;99.90;;;;;;4991357;28;20038;-86
2021/01/26 07:53:00;;;;;;;3.30;0.40;;;3.40;99.90;;;;;;4965575;28;20085;-84
2021/01/26 07:55:47;;;;;;;7.53;0.50;;;3.40;99.90;;;;;;4975237;28;20038;-85
2021/01/26 07:58:15;;;;;;;8.27;0.68;;;3.40;99.90;;;;;;4974975;28;20109;-85
2021/01/26 08:00:47;;;;;;;8.82;0.63;;;3.50;99.90;;;;;;4991034;28;20034;-86
2021/01/26 08:03:12;;;;;;;8.32;0.40;;;3.50;99.90;;;;;;4974873;28;20034;-85
2021/01/26 08:06:01;;;;;;;5.00;0.40;;;3.50;99.90;;;;;;4990981;28;20034;-85
2021/01/26 08:08:37;;;;;;;3.13;0.40;;;3.50;99.90;;;;;;4915808;29;20049;-85
2021/01/26 08:11:20;;;;;;;3.38;0.40;;;3.50;99.90;;;;;;4915979;29;20093;-84
2021/01/26 08:13:53;;;;;;;3.95;0.40;;;3.50;99.90;;;;;;4947957;29;20058;-86
2021/01/26 08:16:30;;;;;;;5.40;0.45;;;3.60;99.90;;;;;;4931964;29;20050;-85
2021/01/26 08:18:58;;;;;;;2.78;0.30;;;3.60;99.90;;;;;;4946166;29;20124;-84
2021/01/26 08:21:41;;;;;;;3.67;0.30;;;3.50;99.90;;;;;;4931909;29;20056;-85
2021/01/26 08:24:09;;;;;;;5.82;0.20;;;3.60;99.90;;;;;;4931939;29;20051;-85
2021/01/26 08:26:36;;;;;;;7.70;1.05;;;3.60;99.90;;;;;;4931740;29;20500;-85
2021/01/26 08:29:01;;;;;;;6.95;0.30;;;3.60;99.90;;;;;;4908796;29;20059;-85
2021/01/26 08:31:41;;;;;;;2.78;0.30;;;3.60;99.90;;;;;;4912258;29;20036;-86
2021/01/26 08:34:22;;;;;;;2.00;0.30;;;3.50;99.90;;;;;;4914371;29;20161;-85
2021/01/26 08:37:07;;;;;;;5.00;0.30;;;3.50;99.90;;;;;;4920223;29;20040;-85
2021/01/26 08:39:41;;;;;;;4.03;0.30;;;3.50;99.90;;;;;;4923653;29;20074;-85
2021/01/26 08:42:09;;;;;;;2.33;0.30;;;3.50;99.90;;;;;;4929091;29;20040;-85
2021/01/26 08:44:34;;;;;;;4.07;0.73;;;3.60;99.90;;;;;;4952178;28;20075;-85
2021/01/26 08:47:39;;;;;;;1.38;0.20;;;3.60;99.90;;;;;;4989326;28;20030;-85
2021/01/26 08:50:15;;;;;;;5.90;0.30;;;3.50;99.90;;;;;;4993156;28;20085;-85
2021/01/26 08:52:41;;;;;;;4.45;0.25;;;3.50;99.90;;;;;;4989029;28;20034;-85
2021/01/26 08:55:07;;;;;;;5.68;0.20;;;3.50;99.90;;;;;;4989557;28;20037;-85
2021/01/26 08:57:33;;;;;;;2.22;0.20;;;3.50;99.90;;;;;;4972893;28;20034;-86
2021/01/26 09:00:13;;;;;;;3.72;0.20;;;3.60;99.90;;;;;;4972899;28;20030;-86
2021/01/26 09:02:42;;;;;;;2.70;0.30;;;3.60;99.90;;;;;;4972727;28;20031;-85
2021/01/26 09:05:09;;;;;;;2.97;0.20;;;3.60;99.90;;;;;;4972459;28;20056;-85
2021/01/26 09:08:07;;;;;;;3.53;0.50;;;3.60;99.90;;;;;;4988470;28;20415;-86
2021/01/26 09:10:48;;;;;;;4.43;0.30;;;3.70;99.90;;;;;;4934292;28;20049;-85
2021/01/26 09:13:23;;;;;;;1.67;0.30;;;3.70;99.90;;;;;;4972473;28;20089;-86
2021/01/26 09:15:52;;;;;;;4.95;0.35;;;3.80;99.90;;;;;;4974222;28;20502;-86
2021/01/26 09:18:21;;;;;;;4.32;0.25;;;3.90;99.90;;;;;;4969330;28;20038;-86
2021/01/26 09:20:52;;;;;;;3.22;0.50;;;4.00;99.90;;;;;;4986442;28;20035;-85
2021/01/26 09:23:21;;;;;;;4.10;0.38;;;4.00;99.90;;;;;;4986700;28;20035;-85
2021/01/26 09:25:46;;;;;;;3.75;0.30;;;4.00;99.90;;;;;;4986614;28;20066;-86
2021/01/26 09:28:18;;;;;;;4.30;0.30;;;4.00;99.90;;;;;;4986128;28;20054;-85
2021/01/26 09:30:45;;;;;;;4.15;0.30;;;4.10;99.90;;;;;;4993258;28;20033;-85
2021/01/26 09:33:23;;;;;;;4.85;0.32;;;4.10;99.90;;;;;;5005690;28;20054;-85
2021/01/26 09:36:01;;;;;;;4.93;0.40;;;4.10;99.90;;;;;;4989603;28;20030;-86
2021/01/26 09:38:44;;;;;;;2.67;0.30;;;4.20;99.90;;;;;;5005583;28;20060;-86
2021/01/26 09:41:19;;;;;;;3.20;0.40;;;4.30;99.90;;;;;;4989482;28;20094;-85
2021/01/26 09:43:56;;;;;;;5.90;0.88;;;4.30;99.90;;;;;;4989393;28;20050;-86
2021/01/26 09:46:38;;;;;;;5.25;0.30;;;4.40;99.90;;;;;;4989209;28;20042;-85
2021/01/26 09:49:18;;;;;;;5.57;0.30;;;4.40;99.90;;;;;;4989181;28;20042;-85
2021/01/26 09:51:58;;;;;;;4.25;0.32;;;4.50;99.90;;;;;;4989099;28;20073;-86
2021/01/26 09:54:29;;;;;;;2.55;0.45;;;4.50;99.90;;;;;;5006795;28;20030;-85
2021/01/26 09:56:57;;;;;;;2.13;0.20;;;4.50;99.90;;;;;;4989220;28;20045;-85
2021/01/26 09:59:24;;;;;;;2.78;0.22;;;4.50;99.90;;;;;;4989179;28;20033;-86
2021/01/26 10:01:50;;;;;;;3.53;0.30;;;4.50;99.90;;;;;;4984988;28;20038;-86
2021/01/26 10:04:18;;;;;;;3.80;0.20;;;4.40;99.90;;;;;;4971941;28;20033;-85
2021/01/26 10:06:44;;;;;;;5.45;0.30;;;4.40;99.90;;;;;;4988063;28;20037;-86
2021/01/26 10:09:27;;;;;;;1.65;0.30;;;4.50;99.90;;;;;;4972751;28;20491;-86
2021/01/26 10:12:14;;;;;;;6.60;0.73;;;4.50;99.90;;;;;;4972637;28;20046;-86
2021/01/26 10:14:40;;;;;;;3.45;0.40;;;4.50;99.90;;;;;;4972505;28;20038;-84
2021/01/26 10:17:12;;;;;;;4.70;0.30;;;4.50;99.90;;;;;;4972475;28;20132;-86
2021/01/26 10:19:38;;;;;;;1.73;0.25;;;4.40;99.90;;;;;;4988833;28;20034;-86
2021/01/26 10:22:14;;;;;;;6.05;0.50;;;4.40;99.90;;;;;;4988426;28;20034;-85
2021/01/26 10:24:40;;;;;;;3.45;0.30;;;4.40;99.90;;;;;;4972703;28;20034;-86
2021/01/26 10:27:07;;;;;;;4.32;0.30;;;4.50;99.90;;;;;;4988519;28;20475;-86
2021/01/26 10:29:41;;;;;;;2.58;0.30;;;4.70;99.90;;;;;;4972587;28;20049;-85
2021/01/26 10:32:10;;;;;;;2.97;0.30;;;4.90;99.90;;;;;;4954888;28;20065;-85
2021/01/26 10:34:49;;;;;;;3.03;0.40;;;5.00;99.90;;;;;;4953274;28;20031;-85
2021/01/26 10:37:29;;;;;;;5.70;0.43;;;5.10;99.90;;;;;;4952766;28;20073;-86
2021/01/26 10:40:26;;;;;;;6.63;0.60;;;5.10;99.90;;;;;;4969242;28;20031;-85
2021/01/26 10:43:18;;;;;;;9.05;1.02;;;5.10;99.90;;;;;;4968827;28;20055;-86
2021/01/26 10:45:50;;;;;;;4.82;0.40;;;5.00;99.90;;;;;;4968920;28;20027;-86
2021/01/26 10:48:32;;;;;;;3.78;0.43;;;5.00;99.90;;;;;;4952713;28;20039;-86
2021/01/26 10:51:27;;;;;;;4.03;0.55;;;5.00;99.90;;;;;;4952958;28;20066;-86
2021/01/26 10:53:53;;;;;;;2.88;0.50;;;5.00;99.90;;;;;;4968944;28;20041;-85
2021/01/26 10:56:18;;;;;;;5.90;0.30;;;4.90;99.90;;;;;;4952863;28;20058;-85
2021/01/26 10:58:45;;;;;;;4.13;0.30;;;4.90;99.90;;;;;;4968799;28;20030;-85
2021/01/26 11:01:16;;;;;;;4.95;0.50;;;5.00;99.90;;;;;;4952718;28;20078;-86
2021/01/26 11:03:42;;;;;;;5.55;0.40;;;5.00;99.90;;;;;;4968849;28;20027;-85
2021/01/26 11:06:07;;;;;;;3.63;0.40;;;5.20;99.90;;;;;;4968773;28;20069;-86
2021/01/26 11:08:33;;;;;;;6.15;0.47;;;5.30;99.90;;;;;;4965088;29;20114;-85
2021/01/26 11:10:59;;;;;;;4.57;0.45;;;5.40;99.90;;;;;;4965633;29;20117;-85
2021/01/26 11:13:25;;;;;;;7.85;0.60;;;5.30;99.90;;;;;;4949678;29;20041;-86
2021/01/26 11:15:50;;;;;;;4.43;0.38;;;5.30;99.90;;;;;;4983818;28;20054;-86
2021/01/26 11:18:16;;;;;;;4.38;0.50;;;5.40;99.90;;;;;;5004136;28;20038;-84
2021/01/26 11:20:42;;;;;;;3.67;0.40;;;5.30;99.90;;;;;;5004223;28;20034;-85
2021/01/26 11:23:08;;;;;;;3.38;0.30;;;5.40;99.90;;;;;;5004197;28;20589;-85
2021/01/26 11:25:35;;;;;;;3.45;0.30;;;5.40;99.90;;;;;;5020891;28;20053;-86
2021/01/26 11:28:04;;;;;;;4.55;0.32;;;5.40;99.90;;;;;;5004275;28;20063;-86
2021/01/26 11:30:30;;;;;;;3.92;0.30;;;5.40;99.90;;;;;;5016624;28;20030;-85
2021/01/26 11:32:56;;;;;;;2.03;0.30;;;5.50;99.90;;;;;;4968488;28;20049;-85
2021/01/26 11:35:24;;;;;;;2.90;0.30;;;5.40;99.90;;;;;;4968681;28;20554;-85
2021/01/26 11:37:51;;;;;;;4.32;0.28;;;5.40;99.90;;;;;;4968628;28;20035;-85
2021/01/26 11:40:17;;;;;;;4.70;0.30;;;5.40;99.90;;;;;;4968886;28;20027;-85
2021/01/26 11:42:43;;;;;;;4.07;0.43;;;5.50;99.90;;;;;;4984772;28;20030;-85
2021/01/26 11:45:13;;;;;;;3.95;0.40;;;5.50;99.90;;;;;;4968711;28;20054;-85
2021/01/26 11:47:38;;;;;;;4.73;0.50;;;5.60;99.90;;;;;;4968303;28;20031;-85
2021/01/26 11:50:07;;;;;;;1.77;0.43;;;5.70;99.90;;;;;;4965971;28;20039;-85
2021/01/26 11:52:32;;;;;;;3.72;0.45;;;5.80;99.90;;;;;;4969311;28;20030;-85
2021/01/26 11:54:58;;;;;;;3.97;0.38;;;5.80;99.90;;;;;;4971748;28;20054;-85
2021/01/26 11:57:23;;;;;;;2.28;0.40;;;5.70;99.90;;;;;;4971795;28;20030;-85
2021/01/26 11:59:49;;;;;;;3.03;0.40;;;5.70;99.90;;;;;;4971766;28;20030;-86
2021/01/26 12:02:15;;;;;;;5.30;0.50;;;5.70;99.90;;;;;;4987891;28;20058;-85
2021/01/26 12:04:41;;;;;;;2.88;0.40;;;5.60;99.90;;;;;;4971420;28;20035;-85
2021/01/26 12:07:06;;;;;;;3.20;0.73;;;5.60;99.90;;;;;;4988381;28;20034;-86
2021/01/26 12:09:32;;;;;;;3.50;0.30;;;5.60;99.90;;;;;;4974945;28;20114;-85
2021/01/26 12:11:59;;;;;;;3.47;0.85;;;5.60;99.90;;;;;;4974675;28;20098;-85
2021/01/26 12:14:24;;;;;;;6.65;0.50;;;5.60;99.90;;;;;;4974450;28;20031;-85
2021/01/26 12:16:50;;;;;;;3.85;0.40;;;5.70;99.90;;;;;;4991620;28;20034;-85
2021/01/26 12:19:17;;;;;;;5.07;0.40;;;5.90;99.90;;;;;;4993298;28;20034;-85
2021/01/26 12:21:43;;;;;;;3.20;0.30;;;5.90;99.90;;;;;;4993682;28;20084;-85
2021/01/26 12:24:09;;;;;;;4.50;0.40;;;6.00;99.90;;;;;;4993849;28;20474;-85
2021/01/26 12:26:35;;;;;;;3.90;0.40;;;6.00;99.90;;;;;;4993754;28;20025;-84
2021/01/26 12:29:01;;;;;;;2.55;0.40;;;6.00;99.90;;;;;;4993638;28;20088;-85
2021/01/26 12:31:26;;;;;;;4.78;0.38;;;6.00;99.90;;;;;;4981921;28;20023;-85
2021/01/26 12:33:52;;;;;;;3.72;0.40;;;6.00;99.90;;;;;;4989811;28;20170;-85
2021/01/26 12:36:18;;;;;;;2.13;0.30;;;6.10;99.90;;;;;;4974066;28;20430;-84
2021/01/26 12:38:44;;;;;;;5.75;0.63;;;6.10;99.90;;;;;;4974221;28;20035;-85
2021/01/26 12:41:09;;;;;;;1.98;0.40;;;5.90;99.90;;;;;;4990254;28;20031;-85
2021/01/26 12:43:35;;;;;;;3.95;0.40;;;6.00;99.90;;;;;;4990361;28;20129;-85
2021/01/26 12:46:00;;;;;;;5.50;0.60;;;6.10;99.90;;;;;;4990272;28;20483;-85
2021/01/26 12:48:26;;;;;;;5.68;0.55;;;6.10;99.90;;;;;;4989330;28;20042;-84
2021/01/26 12:50:52;;;;;;;5.65;0.70;;;6.10;99.90;;;;;;4989832;28;20031;-85
2021/01/26 12:53:18;;;;;;;2.97;0.40;;;6.00;99.90;;;;;;4973912;28;20036;-85
2021/01/26 12:55:43;;;;;;;4.20;0.40;;;6.00;99.90;;;;;;4989929;28;20129;-85
2021/01/26 12:58:09;;;;;;;2.95;0.30;;;5.90;99.90;;;;;;4989756;28;20046;-85
2021/01/26 13:00:35;;;;;;;7.18;0.30;;;5.90;99.90;;;;;;4989814;28;20034;-84
2021/01/26 13:03:01;;;;;;;2.55;0.22;;;5.90;99.90;;;;;;4973675;28;20038;-84
2021/01/26 13:05:27;;;;;;;3.67;0.30;;;5.90;99.90;;;;;;4972760;28;20040;-85
2021/01/26 13:07:52;;;;;;;5.18;0.30;;;5.90;99.90;;;;;;4973274;28;20047;-85
2021/01/26 13:10:19;;;;;;;3.53;0.30;;;6.00;99.90;;;;;;4989849;28;20086;-85
2021/01/26 13:12:48;;;;;;;4.85;0.38;;;5.90;99.90;;;;;;4973479;28;20030;-85
2021/01/26 13:15:17;;;;;;;9.57;0.40;;;5.90;99.90;;;;;;4977421;28;20033;-85
2021/01/26 13:17:42;;;;;;;3.53;0.32;;;5.80;99.90;;;;;;5008996;28;20034;-85
2021/01/26 13:20:10;;;;;;;6.43;0.30;;;5.60;99.90;;;;;;4992627;28;20049;-85
2021/01/26 13:22:42;;;;;;;2.45;0.30;;;5.60;99.90;;;;;;4992989;28;20037;-85
2021/01/26 13:25:09;;;;;;;4.80;0.80;;;5.50;99.90;;;;;;4992650;28;20030;-85
2021/01/26 13:27:35;;;;;;;6.07;0.50;;;5.50;99.90;;;;;;4992572;28;20117;-84
2021/01/26 13:30:02;;;;;;;4.88;0.55;;;5.50;99.90;;;;;;4992476;28;20525;-85
2021/01/26 13:32:27;;;;;;;5.30;0.50;;;5.50;99.90;;;;;;4989460;28;20077;-85